Time;durP1;ratioP1;P1;durP2;ratioP2;P2;SDS_P1;SDS_P2;PMS_P1;PMS_P2;Temp;Humidity;BMP_temperature;BMP_pressure;BME280_temperature;BME280_humidity;BME280_pressure;Samples;Min_cycle;Max_cycle;Signal;HPM_P1;HPM_P2
2023/06/11 00:03:43;;;;;;;8.48;5.53;;;;;;;15.64;50.09;100361.84;30379087;28;97391;-68
2023/06/11 00:18:43;;;;;;;9.73;5.88;;;;;;;15.47;51.37;100361.31;30377233;28;96870;-68
2023/06/11 00:33:43;;;;;;;10.82;5.68;;;;;;;15.30;52.57;100363.50;30377358;28;97038;-68
2023/06/11 00:48:44;;;;;;;7.00;5.38;;;;;;;15.16;54.12;100367.09;30375983;28;96736;-69
2023/06/11 01:03:52;;;;;;;11.27;6.07;;;;;;;15.06;55.36;100375.50;30374407;28;97053;-68
2023/06/11 01:19:08;;;;;;;9.03;6.70;;;;;;;14.93;56.53;100386.16;30373046;28;97080;-67
2023/06/11 01:34:09;;;;;;;11.50;7.17;;;;;;;14.78;58.20;100396.97;30377354;28;96730;-68
2023/06/11 01:49:10;;;;;;;12.33;6.80;;;;;;;14.59;59.21;100415.31;30391568;28;96735;-67
2023/06/11 02:04:10;;;;;;;9.65;6.38;;;;;;;14.39;60.40;100421.31;30390842;28;98588;-68
2023/06/11 02:19:10;;;;;;;9.75;7.30;;;;;;;14.20;61.49;100432.63;30388484;28;116681;-68
2023/06/11 02:34:11;;;;;;;9.82;7.53;;;;;;;14.07;62.39;100441.34;30388279;28;96859;-67
2023/06/11 02:49:11;;;;;;;11.48;8.02;;;;;;;14.02;63.33;100463.34;30386744;28;96715;-68
2023/06/11 03:04:11;;;;;;;11.43;8.38;;;;;;;14.12;64.01;100467.56;30383228;28;108556;-67
2023/06/11 03:19:12;;;;;;;12.35;8.88;;;;;;;14.29;64.47;100478.91;30383301;28;96857;-67
2023/06/11 03:34:12;;;;;;;11.02;8.57;;;;;;;14.53;65.34;100488.47;30381152;28;97091;-67
2023/06/11 03:49:12;;;;;;;13.85;9.20;;;;;;;14.79;65.51;100496.00;30380209;28;97352;-68
2023/06/11 04:04:13;;;;;;;14.90;9.45;;;;;;;15.15;65.72;100505.81;30378008;28;96789;-68
2023/06/11 04:19:13;;;;;;;14.63;10.35;;;;;;;15.76;65.47;100515.19;30377075;28;96849;-67
2023/06/11 04:34:16;;;;;;;12.90;9.30;;;;;;;16.16;65.36;100528.06;30376434;28;96742;-66
2023/06/11 04:49:20;;;;;;;12.77;10.57;;;;;;;16.58;65.24;100532.38;30373810;28;97363;-67
2023/06/11 05:04:21;;;;;;;19.00;10.73;;;;;;;17.05;64.96;100542.47;30372590;28;96947;-68
2023/06/11 05:19:21;;;;;;;12.30;10.17;;;;;;;17.59;64.70;100544.16;30370841;28;96822;-68
2023/06/11 05:34:23;;;;;;;11.70;10.05;;;;;;;18.13;64.22;100549.50;30372180;28;96753;-69
2023/06/11 05:49:23;;;;;;;15.37;9.93;;;;;;;18.59;63.54;100562.00;30369319;28;96756;-68
2023/06/11 06:04:24;;;;;;;9.68;8.68;;;;;;;19.09;62.83;100572.13;30366213;28;96732;-67
2023/06/11 06:19:25;;;;;;;10.37;9.03;;;;;;;19.91;61.71;100590.25;30370564;28;97560;-68
2023/06/11 06:34:26;;;;;;;16.63;8.40;;;;;;;20.71;60.21;100587.72;30386643;28;101076;-68
2023/06/11 06:49:26;;;;;;;9.07;7.50;;;;;;;21.26;58.14;100587.59;30386022;28;96743;-70
2023/06/11 07:04:26;;;;;;;10.47;6.93;;;;;;;21.80;56.23;100571.34;30383399;28;96759;-69
2023/06/11 07:19:26;;;;;;;6.90;6.20;;;;;;;22.43;54.42;100568.09;30383030;28;96748;-69
2023/06/11 07:34:27;;;;;;;9.65;6.03;;;;;;;23.31;52.25;100571.41;30382129;28;103200;-69
2023/06/11 07:49:27;;;;;;;;;;;;;;;23.64;50.20;100574.38;30380863;28;96713;-70
2023/06/11 08:04:27;;;;;;;7.93;6.70;;;;;;;24.59;48.50;100566.19;30379048;28;97237;-69
2023/06/11 08:19:28;;;;;;;8.45;7.28;;;;;;;25.86;45.10;100572.25;30377357;28;109606;-68
2023/06/11 08:34:28;;;;;;;5.93;5.32;;;;;;;26.39;42.58;100561.38;30374135;28;99696;-69
2023/06/11 08:49:30;;;;;;;9.93;5.78;;;;;;;26.50;39.36;100554.88;30373449;28;114075;-69
2023/06/11 09:04:31;;;;;;;8.30;5.30;;;;;;;27.32;38.31;100556.94;30372550;28;97104;-69
2023/06/11 09:19:37;;;;;;;6.75;4.68;;;;;;;27.94;35.31;100554.16;30371510;28;97582;-69
2023/06/11 09:34:37;;;;;;;6.27;5.10;;;;;;;28.12;34.08;100532.78;30371630;28;96701;-69
2023/06/11 09:49:39;;;;;;;5.63;4.30;;;;;;;28.44;32.52;100537.00;30370012;28;113186;-69
2023/06/11 10:04:40;;;;;;;6.80;4.30;;;;;;;29.02;31.59;100537.22;30385890;28;96850;-69
2023/06/11 10:19:41;;;;;;;5.50;3.70;;;;;;;29.32;30.44;100543.59;30388593;28;97491;-69
2023/06/11 10:34:42;;;;;;;4.25;3.80;;;;;;;29.26;28.36;100532.97;30387110;28;97394;-69
2023/06/11 10:49:42;;;;;;;7.32;3.55;;;;;;;29.72;28.32;100524.28;30385854;28;97320;-69
2023/06/11 11:04:51;;;;;;;9.50;3.70;;;;;;;29.44;27.88;100537.72;30382367;28;100374;-69
2023/06/11 11:19:51;;;;;;;5.07;3.37;;;;;;;29.68;27.66;100529.53;30382626;28;96876;-69
2023/06/11 11:34:52;;;;;;;12.27;3.65;;;;;;;30.77;25.63;100534.56;30381172;28;99504;-68
2023/06/11 11:49:56;;;;;;;5.30;2.92;;;;;;;31.10;24.46;100522.78;30380091;28;97425;-69
2023/06/11 12:05:00;;;;;;;4.50;3.40;;;;;;;30.75;23.88;100508.47;30419653;28;97351;-68
2023/06/11 12:20:00;;;;;;;7.43;3.10;;;;;;;30.45;24.10;100505.84;30539563;28;97543;-68
2023/06/11 12:35:01;;;;;;;4.40;3.45;;;;;;;30.36;23.76;100493.88;30543416;28;97198;-68
2023/06/11 12:50:02;;;;;;;5.17;2.93;;;;;;;29.83;24.31;100486.56;30526908;28;97959;-68
2023/06/11 13:05:03;;;;;;;7.25;3.15;;;;;;;29.18;24.55;100487.72;30535128;28;97717;-68
2023/06/11 13:20:04;;;;;;;5.03;3.20;;;;;;;28.93;24.76;100489.56;30562934;28;96915;-68
2023/06/11 13:35:05;;;;;;;4.45;2.67;;;;;;;28.49;24.66;100471.22;30559187;28;98332;-68
2023/06/11 13:50:06;;;;;;;5.03;2.73;;;;;;;27.69;24.17;100481.97;30560803;28;97503;-68
2023/06/11 14:05:07;;;;;;;5.47;2.53;;;;;;;27.56;25.07;100476.22;30460927;28;98031;-67
2023/06/11 14:20:08;;;;;;;5.13;2.70;;;;;;;27.07;24.89;100461.25;30491242;28;97120;-67
2023/06/11 14:35:08;;;;;;;7.60;3.50;;;;;;;26.60;26.15;100460.34;30495351;28;97578;-66
2023/06/11 14:50:09;;;;;;;5.45;2.90;;;;;;;26.45;26.29;100458.41;30493897;28;96867;-67
2023/06/11 15:05:09;;;;;;;4.72;2.70;;;;;;;26.01;26.15;100444.09;30492795;28;97142;-66
2023/06/11 15:20:10;;;;;;;4.00;2.17;;;;;;;25.62;25.75;100435.44;30491198;28;97267;-67
2023/06/11 15:35:11;;;;;;;3.58;2.05;;;;;;;25.59;25.53;100431.34;30488683;28;97318;-67
2023/06/11 15:50:11;;;;;;;4.88;2.42;;;;;;;25.37;24.98;100434.22;30485525;28;96877;-67
2023/06/11 16:05:11;;;;;;;3.42;2.00;;;;;;;25.12;24.77;100432.09;30486547;28;96796;-67
2023/06/11 16:20:12;;;;;;;4.03;1.92;;;;;;;24.83;25.17;100429.69;30486221;28;108556;-68
2023/06/11 16:35:16;;;;;;;4.05;1.60;;;;;;;24.53;24.82;100436.47;30485746;28;97242;-66
2023/06/11 16:50:16;;;;;;;4.00;1.90;;;;;;;24.26;25.27;100431.03;30484357;28;97208;-68
2023/06/11 17:05:17;;;;;;;3.63;1.75;;;;;;;23.90;25.17;100430.63;30479168;28;98627;-66
2023/06/11 17:20:17;;;;;;;2.65;1.60;;;;;;;23.45;25.29;100435.97;30481357;28;96877;-66
2023/06/11 17:35:18;;;;;;;3.90;2.00;;;;;;;23.03;25.97;100438.28;30480394;28;96850;-65
2023/06/11 17:50:18;;;;;;;;;;;;;;;22.57;26.54;100443.78;30478710;28;97003;-65
2023/06/11 18:05:19;;;;;;;2.87;1.67;;;;;;;22.04;27.35;100440.28;30478613;28;96958;-65
2023/06/11 18:20:19;;;;;;;3.00;1.40;;;;;;;21.55;28.61;100438.72;30486675;28;97220;-65
2023/06/11 18:35:19;;;;;;;4.47;1.73;;;;;;;21.04;29.45;100446.47;30495185;28;97341;-65
2023/06/11 18:50:20;;;;;;;4.57;1.83;;;;;;;20.43;30.61;100459.22;30490042;28;98319;-67
2023/06/11 19:05:20;;;;;;;3.07;1.73;;;;;;;19.87;31.52;100474.66;30500711;28;96925;-67
2023/06/11 19:20:21;;;;;;;3.95;1.80;;;;;;;19.37;32.49;100470.13;30502819;28;110846;-67
2023/06/11 19:35:21;;;;;;;3.75;1.70;;;;;;;18.88;33.14;100492.31;30481497;28;96821;-67
2023/06/11 19:50:25;;;;;;;3.70;1.85;;;;;;;18.44;33.90;100496.72;30486760;28;96857;-67
2023/06/11 20:05:27;;;;;;;3.30;2.03;;;;;;;18.01;34.77;100502.66;30486548;28;97744;-69
2023/06/11 20:20:28;;;;;;;3.60;2.30;;;;;;;17.90;35.72;100507.63;30402539;28;97096;-66
2023/06/11 20:35:28;;;;;;;4.00;2.05;;;;;;;18.49;35.90;100518.44;30440621;28;96930;-66
2023/06/11 20:50:28;;;;;;;5.32;2.17;;;;;;;18.57;36.20;100522.78;30493859;28;110242;-66
2023/06/11 21:05:29;;;;;;;3.80;2.30;;;;;;;18.11;36.64;100516.50;30492126;28;107251;-66
2023/06/11 21:20:33;;;;;;;5.25;2.75;;;;;;;17.77;38.02;100519.28;30490922;28;98523;-68
2023/06/11 21:35:33;;;;;;;5.00;2.27;;;;;;;17.50;38.83;100528.44;30473744;28;96738;-68
2023/06/11 21:50:33;;;;;;;5.20;2.80;;;;;;;17.20;39.94;100536.91;30495939;28;100721;-68
2023/06/11 22:05:34;;;;;;;8.65;3.10;;;;;;;17.12;40.69;100537.91;30509700;28;97449;-68
2023/06/11 22:20:35;;;;;;;5.03;3.15;;;;;;;17.04;41.52;100551.56;30508827;28;97412;-67
2023/06/11 22:35:35;;;;;;;5.27;3.93;;;;;;;17.24;41.51;100541.66;30508267;28;96781;-68
2023/06/11 22:50:36;;;;;;;5.72;3.03;;;;;;;16.98;42.23;100547.03;30507376;28;97672;-68
2023/06/11 23:05:37;;;;;;;6.47;3.70;;;;;;;16.66;43.61;100543.97;30504103;28;97557;-68
2023/06/11 23:20:40;;;;;;;5.20;3.40;;;;;;;16.02;44.59;100540.56;30504097;28;96658;-69
2023/06/11 23:35:40;;;;;;;8.43;4.10;;;;;;;15.56;46.11;100544.59;30502247;28;96643;-68
2023/06/11 23:50:41;;;;;;;4.97;3.35;;;;;;;15.13;47.62;100532.03;30501049;28;97866;-68
